sensor_id;sensor_type;location;lat;lon;timestamp;temperature;humidity
70947;DHT22;58605;48.700;8.760;2022-12-20T00:01:17;1.00;99.90
70947;DHT22;58605;48.700;8.760;2022-12-20T00:03:45;0.90;99.90
70947;DHT22;58605;48.700;8.760;2022-12-20T00:06:11;0.80;99.90
70947;DHT22;58605;48.700;8.760;2022-12-20T00:08:38;0.80;99.90
70947;DHT22;58605;48.700;8.760;2022-12-20T00:11:05;0.70;99.90
70947;DHT22;58605;48.700;8.760;2022-12-20T00:13:32;1.00;99.90
70947;DHT22;58605;48.700;8.760;2022-12-20T00:16:06;1.40;99.90
70947;DHT22;58605;48.700;8.760;2022-12-20T00:18:32;1.10;99.90
70947;DHT22;58605;48.700;8.760;2022-12-20T00:21:00;0.90;99.90
70947;DHT22;58605;48.700;8.760;2022-12-20T00:23:26;0.80;99.90
70947;DHT22;58605;48.700;8.760;2022-12-20T00:25:59;1.10;99.90
70947;DHT22;58605;48.700;8.760;2022-12-20T00:28:25;1.30;99.90
70947;DHT22;58605;48.700;8.760;2022-12-20T00:30:52;1.30;99.90
70947;DHT22;58605;48.700;8.760;2022-12-20T00:33:19;1.50;99.90
70947;DHT22;58605;48.700;8.760;2022-12-20T00:35:44;1.70;99.90
70947;DHT22;58605;48.700;8.760;2022-12-20T00:38:12;1.50;99.90
70947;DHT22;58605;48.700;8.760;2022-12-20T00:40:38;1.30;99.90
70947;DHT22;58605;48.700;8.760;2022-12-20T00:43:04;1.50;99.90
70947;DHT22;58605;48.700;8.760;2022-12-20T00:45:30;1.30;99.90
70947;DHT22;58605;48.700;8.760;2022-12-20T00:47:56;1.10;99.90
70947;DHT22;58605;48.700;8.760;2022-12-20T00:50:22;0.90;99.90
70947;DHT22;58605;48.700;8.760;2022-12-20T00:53:24;0.90;99.90
70947;DHT22;58605;48.700;8.760;2022-12-20T00:55:50;0.70;99.90
70947;DHT22;58605;48.700;8.760;2022-12-20T00:58:16;0.70;99.90
70947;DHT22;58605;48.700;8.760;2022-12-20T01:00:42;0.60;99.90
70947;DHT22;58605;48.700;8.760;2022-12-20T01:03:08;0.60;99.90
70947;DHT22;58605;48.700;8.760;2022-12-20T01:05:33;0.60;99.90
70947;DHT22;58605;48.700;8.760;2022-12-20T01:08:00;0.50;99.90
70947;DHT22;58605;48.700;8.760;2022-12-20T01:10:27;0.60;99.90
70947;DHT22;58605;48.700;8.760;2022-12-20T01:12:53;0.80;99.90
70947;DHT22;58605;48.700;8.760;2022-12-20T01:15:19;0.60;99.90
70947;DHT22;58605;48.700;8.760;2022-12-20T01:17:45;0.60;99.90
70947;DHT22;58605;48.700;8.760;2022-12-20T01:20:12;0.50;99.90
70947;DHT22;58605;48.700;8.760;2022-12-20T01:22:38;0.50;99.90
70947;DHT22;58605;48.700;8.760;2022-12-20T01:25:04;0.50;99.90
70947;DHT22;58605;48.700;8.760;2022-12-20T01:27:32;0.50;99.90
70947;DHT22;58605;48.700;8.760;2022-12-20T01:29:58;0.50;99.90
70947;DHT22;58605;48.700;8.760;2022-12-20T01:32:24;0.60;99.90
70947;DHT22;58605;48.700;8.760;2022-12-20T01:34:50;0.60;99.90
70947;DHT22;58605;48.700;8.760;2022-12-20T01:37:16;0.60;99.90
70947;DHT22;58605;48.700;8.760;2022-12-20T01:39:42;0.70;99.90
70947;DHT22;58605;48.700;8.760;2022-12-20T01:42:14;0.70;99.90
70947;DHT22;58605;48.700;8.760;2022-12-20T01:44:57;0.70;99.90
70947;DHT22;58605;48.700;8.760;2022-12-20T01:47:26;0.70;99.90
70947;DHT22;58605;48.700;8.760;2022-12-20T01:49:55;0.70;99.90
70947;DHT22;58605;48.700;8.760;2022-12-20T01:52:27;0.70;99.90
70947;DHT22;58605;48.700;8.760;2022-12-20T01:54:57;0.70;99.90
70947;DHT22;58605;48.700;8.760;2022-12-20T01:57:30;0.60;99.90
70947;DHT22;58605;48.700;8.760;2022-12-20T01:59:58;0.60;99.90
70947;DHT22;58605;48.700;8.760;2022-12-20T02:02:45;0.60;99.90
70947;DHT22;58605;48.700;8.760;2022-12-20T02:05:12;0.60;99.90
70947;DHT22;58605;48.700;8.760;2022-12-20T02:07:40;0.60;99.90
70947;DHT22;58605;48.700;8.760;2022-12-20T02:10:08;0.70;99.90
70947;DHT22;58605;48.700;8.760;2022-12-20T02:12:38;0.70;99.90
70947;DHT22;58605;48.700;8.760;2022-12-20T02:15:25;0.80;99.90
70947;DHT22;58605;48.700;8.760;2022-12-20T02:18:06;1.20;99.90
70947;DHT22;58605;48.700;8.760;2022-12-20T02:21:00;1.10;99.90
70947;DHT22;58605;48.700;8.760;2022-12-20T02:24:08;1.00;99.90
70947;DHT22;58605;48.700;8.760;2022-12-20T02:30:02;0.90;99.90
70947;DHT22;58605;48.700;8.760;2022-12-20T02:32:34;0.90;99.90
70947;DHT22;58605;48.700;8.760;2022-12-20T02:35:04;0.90;99.90
70947;DHT22;58605;48.700;8.760;2022-12-20T02:37:32;0.90;99.90
70947;DHT22;58605;48.700;8.760;2022-12-20T02:39:58;0.90;99.90
70947;DHT22;58605;48.700;8.760;2022-12-20T02:42:26;0.80;99.90
70947;DHT22;58605;48.700;8.760;2022-12-20T02:44:56;0.90;99.90
70947;DHT22;58605;48.700;8.760;2022-12-20T02:47:48;0.90;99.90
70947;DHT22;58605;48.700;8.760;2022-12-20T02:50:21;1.20;99.90
70947;DHT22;58605;48.700;8.760;2022-12-20T02:52:48;1.20;99.90
70947;DHT22;58605;48.700;8.760;2022-12-20T02:55:16;1.10;99.90
70947;DHT22;58605;48.700;8.760;2022-12-20T02:57:46;0.90;99.90
70947;DHT22;58605;48.700;8.760;2022-12-20T03:00:16;0.90;99.90
70947;DHT22;58605;48.700;8.760;2022-12-20T03:02:45;0.90;99.90
70947;DHT22;58605;48.700;8.760;2022-12-20T03:05:32;0.90;99.90
70947;DHT22;58605;48.700;8.760;2022-12-20T03:07:59;1.20;99.90
70947;DHT22;58605;48.700;8.760;2022-12-20T03:10:25;1.40;99.90
70947;DHT22;58605;48.700;8.760;2022-12-20T03:12:51;1.80;99.90
70947;DHT22;58605;48.700;8.760;2022-12-20T03:15:17;1.50;99.90
70947;DHT22;58605;48.700;8.760;2022-12-20T03:17:45;1.30;99.90
70947;DHT22;58605;48.700;8.760;2022-12-20T03:20:11;1.20;99.90
70947;DHT22;58605;48.700;8.760;2022-12-20T03:22:37;1.20;99.90
70947;DHT22;58605;48.700;8.760;2022-12-20T03:25:05;1.10;99.90
70947;DHT22;58605;48.700;8.760;2022-12-20T03:27:31;1.00;99.90
70947;DHT22;58605;48.700;8.760;2022-12-20T03:29:57;1.10;99.90
70947;DHT22;58605;48.700;8.760;2022-12-20T03:32:23;1.30;99.90
70947;DHT22;58605;48.700;8.760;2022-12-20T03:34:50;1.30;99.90
70947;DHT22;58605;48.700;8.760;2022-12-20T03:37:16;1.20;99.90
70947;DHT22;58605;48.700;8.760;2022-12-20T03:39:43;1.10;99.90
70947;DHT22;58605;48.700;8.760;2022-12-20T03:42:09;1.10;99.90
70947;DHT22;58605;48.700;8.760;2022-12-20T03:44:35;1.10;99.90
70947;DHT22;58605;48.700;8.760;2022-12-20T03:47:01;1.00;99.90
70947;DHT22;58605;48.700;8.760;2022-12-20T03:49:27;0.90;99.90
70947;DHT22;58605;48.700;8.760;2022-12-20T03:51:54;0.80;99.90
70947;DHT22;58605;48.700;8.760;2022-12-20T03:54:20;0.80;99.90
70947;DHT22;58605;48.700;8.760;2022-12-20T03:56:46;0.90;99.90
70947;DHT22;58605;48.700;8.760;2022-12-20T03:59:12;0.90;99.90
70947;DHT22;58605;48.700;8.760;2022-12-20T04:01:39;1.00;99.90
70947;DHT22;58605;48.700;8.760;2022-12-20T04:04:06;1.40;99.90
70947;DHT22;58605;48.700;8.760;2022-12-20T04:06:32;1.70;99.90
70947;DHT22;58605;48.700;8.760;2022-12-20T04:08:59;1.60;99.90
70947;DHT22;58605;48.700;8.760;2022-12-20T04:11:25;1.60;99.90
70947;DHT22;58605;48.700;8.760;2022-12-20T04:13:53;1.50;99.90
70947;DHT22;58605;48.700;8.760;2022-12-20T04:16:20;1.30;99.90
70947;DHT22;58605;48.700;8.760;2022-12-20T04:18:47;1.20;99.90
70947;DHT22;58605;48.700;8.760;2022-12-20T04:21:13;1.20;99.90
70947;DHT22;58605;48.700;8.760;2022-12-20T04:23:41;1.40;99.90
70947;DHT22;58605;48.700;8.760;2022-12-20T04:26:09;1.20;99.90
70947;DHT22;58605;48.700;8.760;2022-12-20T04:28:36;1.10;99.90
70947;DHT22;58605;48.700;8.760;2022-12-20T04:31:02;1.00;99.90
70947;DHT22;58605;48.700;8.760;2022-12-20T04:33:29;1.00;99.90
70947;DHT22;58605;48.700;8.760;2022-12-20T04:35:55;0.90;99.90
70947;DHT22;58605;48.700;8.760;2022-12-20T04:38:22;0.90;99.90
70947;DHT22;58605;48.700;8.760;2022-12-20T04:40:49;0.80;99.90
70947;DHT22;58605;48.700;8.760;2022-12-20T04:43:17;0.80;99.90
70947;DHT22;58605;48.700;8.760;2022-12-20T04:45:43;0.70;99.90
70947;DHT22;58605;48.700;8.760;2022-12-20T04:48:10;0.80;99.90
70947;DHT22;58605;48.700;8.760;2022-12-20T04:50:36;0.80;99.90
70947;DHT22;58605;48.700;8.760;2022-12-20T04:53:02;0.90;99.90
70947;DHT22;58605;48.700;8.760;2022-12-20T04:55:47;0.80;99.90
70947;DHT22;58605;48.700;8.760;2022-12-20T04:58:13;0.90;99.90
70947;DHT22;58605;48.700;8.760;2022-12-20T05:00:41;0.80;99.90
70947;DHT22;58605;48.700;8.760;2022-12-20T05:03:07;0.80;99.90
70947;DHT22;58605;48.700;8.760;2022-12-20T05:05:33;1.50;99.90
70947;DHT22;58605;48.700;8.760;2022-12-20T05:08:00;1.90;99.90
70947;DHT22;58605;48.700;8.760;2022-12-20T05:10:26;1.80;99.90
70947;DHT22;58605;48.700;8.760;2022-12-20T05:12:52;1.60;99.90
70947;DHT22;58605;48.700;8.760;2022-12-20T05:15:18;1.30;99.90
70947;DHT22;58605;48.700;8.760;2022-12-20T05:17:46;1.10;99.90
70947;DHT22;58605;48.700;8.760;2022-12-20T05:20:12;1.00;99.90
70947;DHT22;58605;48.700;8.760;2022-12-20T05:22:39;0.90;99.90
70947;DHT22;58605;48.700;8.760;2022-12-20T05:25:23;0.80;99.90
70947;DHT22;58605;48.700;8.760;2022-12-20T05:28:08;0.80;99.90
70947;DHT22;58605;48.700;8.760;2022-12-20T05:30:34;0.80;99.90
70947;DHT22;58605;48.700;8.760;2022-12-20T05:33:02;0.90;99.90
70947;DHT22;58605;48.700;8.760;2022-12-20T05:35:28;1.00;99.90
70947;DHT22;58605;48.700;8.760;2022-12-20T05:37:54;1.30;99.90
70947;DHT22;58605;48.700;8.760;2022-12-20T05:40:20;1.50;99.90
70947;DHT22;58605;48.700;8.760;2022-12-20T05:42:47;1.60;99.90
70947;DHT22;58605;48.700;8.760;2022-12-20T05:45:13;1.50;99.90
70947;DHT22;58605;48.700;8.760;2022-12-20T05:47:39;1.20;99.90
70947;DHT22;58605;48.700;8.760;2022-12-20T05:50:08;1.00;99.90
70947;DHT22;58605;48.700;8.760;2022-12-20T05:52:34;0.90;99.90
70947;DHT22;58605;48.700;8.760;2022-12-20T05:55:00;0.80;99.90
70947;DHT22;58605;48.700;8.760;2022-12-20T05:57:26;0.70;99.90
70947;DHT22;58605;48.700;8.760;2022-12-20T05:59:53;0.90;99.90
70947;DHT22;58605;48.700;8.760;2022-12-20T06:02:19;1.00;99.90
70947;DHT22;58605;48.700;8.760;2022-12-20T06:04:45;1.10;99.90
70947;DHT22;58605;48.700;8.760;2022-12-20T06:07:13;1.40;99.90
70947;DHT22;58605;48.700;8.760;2022-12-20T06:09:39;1.40;99.90
70947;DHT22;58605;48.700;8.760;2022-12-20T06:12:05;1.20;99.90
70947;DHT22;58605;48.700;8.760;2022-12-20T06:14:31;1.10;99.90
70947;DHT22;58605;48.700;8.760;2022-12-20T06:16:57;1.00;99.90
70947;DHT22;58605;48.700;8.760;2022-12-20T06:19:23;0.90;99.90
70947;DHT22;58605;48.700;8.760;2022-12-20T06:21:50;0.70;99.90
70947;DHT22;58605;48.700;8.760;2022-12-20T06:24:17;0.70;99.90
70947;DHT22;58605;48.700;8.760;2022-12-20T06:26:43;0.60;99.90
70947;DHT22;58605;48.700;8.760;2022-12-20T06:29:10;0.60;99.90
70947;DHT22;58605;48.700;8.760;2022-12-20T06:31:38;0.60;99.90
70947;DHT22;58605;48.700;8.760;2022-12-20T06:34:05;0.70;99.90
70947;DHT22;58605;48.700;8.760;2022-12-20T06:36:31;0.80;99.90
70947;DHT22;58605;48.700;8.760;2022-12-20T06:38:57;0.90;99.90
70947;DHT22;58605;48.700;8.760;2022-12-20T06:41:24;0.80;99.90
70947;DHT22;58605;48.700;8.760;2022-12-20T06:43:51;0.70;99.90
70947;DHT22;58605;48.700;8.760;2022-12-20T06:46:17;0.60;99.90
70947;DHT22;58605;48.700;8.760;2022-12-20T06:48:43;0.60;99.90
70947;DHT22;58605;48.700;8.760;2022-12-20T06:51:09;0.60;99.90
70947;DHT22;58605;48.700;8.760;2022-12-20T06:53:36;0.70;99.90
70947;DHT22;58605;48.700;8.760;2022-12-20T06:56:02;0.70;99.90
70947;DHT22;58605;48.700;8.760;2022-12-20T06:58:30;0.80;99.90
70947;DHT22;58605;48.700;8.760;2022-12-20T07:00:56;0.90;99.90
70947;DHT22;58605;48.700;8.760;2022-12-20T07:03:22;0.90;99.90
70947;DHT22;58605;48.700;8.760;2022-12-20T07:05:50;0.90;99.90
70947;DHT22;58605;48.700;8.760;2022-12-20T07:08:17;0.80;99.90
70947;DHT22;58605;48.700;8.760;2022-12-20T07:10:44;0.80;99.90
70947;DHT22;58605;48.700;8.760;2022-12-20T07:13:10;0.70;99.90
70947;DHT22;58605;48.700;8.760;2022-12-20T07:15:37;0.70;99.90
70947;DHT22;58605;48.700;8.760;2022-12-20T07:18:03;0.60;99.90
70947;DHT22;58605;48.700;8.760;2022-12-20T07:20:30;0.60;99.90
70947;DHT22;58605;48.700;8.760;2022-12-20T07:22:56;0.60;99.90
70947;DHT22;58605;48.700;8.760;2022-12-20T07:25:22;0.70;99.90
70947;DHT22;58605;48.700;8.760;2022-12-20T07:27:50;0.70;99.90
70947;DHT22;58605;48.700;8.760;2022-12-20T07:30:17;0.80;99.90
70947;DHT22;58605;48.700;8.760;2022-12-20T07:32:45;0.80;99.90
70947;DHT22;58605;48.700;8.760;2022-12-20T07:35:12;0.70;99.90
70947;DHT22;58605;48.700;8.760;2022-12-20T07:37:39;0.50;99.90
70947;DHT22;58605;48.700;8.760;2022-12-20T07:40:07;0.40;99.90
70947;DHT22;58605;48.700;8.760;2022-12-20T07:42:33;0.40;99.90
70947;DHT22;58605;48.700;8.760;2022-12-20T07:45:00;0.40;99.90
70947;DHT22;58605;48.700;8.760;2022-12-20T07:47:27;0.40;99.90
70947;DHT22;58605;48.700;8.760;2022-12-20T07:49:55;0.40;99.90
70947;DHT22;58605;48.700;8.760;2022-12-20T07:52:22;0.50;99.90
70947;DHT22;58605;48.700;8.760;2022-12-20T07:54:52;0.40;99.90
70947;DHT22;58605;48.700;8.760;2022-12-20T07:57:22;0.50;99.90
70947;DHT22;58605;48.700;8.760;2022-12-20T07:59:53;0.50;99.90
70947;DHT22;58605;48.700;8.760;2022-12-20T08:02:23;0.50;99.90
70947;DHT22;58605;48.700;8.760;2022-12-20T08:04:53;0.50;99.90
70947;DHT22;58605;48.700;8.760;2022-12-20T08:07:20;0.60;99.90
70947;DHT22;58605;48.700;8.760;2022-12-20T08:09:46;0.60;99.90
70947;DHT22;58605;48.700;8.760;2022-12-20T08:12:14;0.60;99.90
70947;DHT22;58605;48.700;8.760;2022-12-20T08:14:41;0.60;99.90
70947;DHT22;58605;48.700;8.760;2022-12-20T08:17:07;0.60;99.90
70947;DHT22;58605;48.700;8.760;2022-12-20T08:19:33;0.70;99.90
70947;DHT22;58605;48.700;8.760;2022-12-20T08:22:01;0.70;99.90
70947;DHT22;58605;48.700;8.760;2022-12-20T08:24:28;0.80;99.90
70947;DHT22;58605;48.700;8.760;2022-12-20T08:26:54;0.80;99.90
70947;DHT22;58605;48.700;8.760;2022-12-20T08:29:21;0.80;99.90
70947;DHT22;58605;48.700;8.760;2022-12-20T08:31:47;0.90;99.90
70947;DHT22;58605;48.700;8.760;2022-12-20T08:34:13;0.90;99.90
70947;DHT22;58605;48.700;8.760;2022-12-20T08:36:39;1.00;99.90
70947;DHT22;58605;48.700;8.760;2022-12-20T08:39:07;0.90;99.90
70947;DHT22;58605;48.700;8.760;2022-12-20T08:41:33;0.90;99.90
70947;DHT22;58605;48.700;8.760;2022-12-20T08:43:59;0.90;99.90
70947;DHT22;58605;48.700;8.760;2022-12-20T08:46:26;0.90;99.90
70947;DHT22;58605;48.700;8.760;2022-12-20T08:48:52;0.90;99.90
70947;DHT22;58605;48.700;8.760;2022-12-20T08:51:18;0.90;99.90
70947;DHT22;58605;48.700;8.760;2022-12-20T08:53:44;1.00;99.90
70947;DHT22;58605;48.700;8.760;2022-12-20T08:56:12;1.00;99.90
70947;DHT22;58605;48.700;8.760;2022-12-20T08:58:40;1.00;99.90
70947;DHT22;58605;48.700;8.760;2022-12-20T09:01:08;0.90;99.90
70947;DHT22;58605;48.700;8.760;2022-12-20T09:03:36;0.90;99.90
70947;DHT22;58605;48.700;8.760;2022-12-20T09:06:04;0.90;99.90
70947;DHT22;58605;48.700;8.760;2022-12-20T09:08:31;0.90;99.90
70947;DHT22;58605;48.700;8.760;2022-12-20T09:11:05;0.90;99.90
70947;DHT22;58605;48.700;8.760;2022-12-20T09:13:33;0.80;99.90
70947;DHT22;58605;48.700;8.760;2022-12-20T09:16:00;0.70;99.90
70947;DHT22;58605;48.700;8.760;2022-12-20T09:18:26;0.60;99.90
70947;DHT22;58605;48.700;8.760;2022-12-20T09:20:52;0.60;99.90
70947;DHT22;58605;48.700;8.760;2022-12-20T09:23:18;0.60;99.90
70947;DHT22;58605;48.700;8.760;2022-12-20T09:25:44;0.70;99.90
70947;DHT22;58605;48.700;8.760;2022-12-20T09:28:10;0.70;99.90
70947;DHT22;58605;48.700;8.760;2022-12-20T09:30:38;0.70;99.90
70947;DHT22;58605;48.700;8.760;2022-12-20T09:33:04;0.70;99.90
70947;DHT22;58605;48.700;8.760;2022-12-20T09:35:30;0.80;99.90
70947;DHT22;58605;48.700;8.760;2022-12-20T09:37:58;0.80;99.90
70947;DHT22;58605;48.700;8.760;2022-12-20T09:40:27;0.90;99.90
70947;DHT22;58605;48.700;8.760;2022-12-20T09:42:54;0.90;99.90
70947;DHT22;58605;48.700;8.760;2022-12-20T09:45:24;1.10;99.90
70947;DHT22;58605;48.700;8.760;2022-12-20T09:47:53;1.40;99.90
70947;DHT22;58605;48.700;8.760;2022-12-20T09:50:24;1.30;99.90
70947;DHT22;58605;48.700;8.760;2022-12-20T09:53:02;1.20;99.90
70947;DHT22;58605;48.700;8.760;2022-12-20T09:55:33;1.20;99.90
70947;DHT22;58605;48.700;8.760;2022-12-20T09:58:29;1.10;99.90
70947;DHT22;58605;48.700;8.760;2022-12-20T10:01:12;1.10;99.90
70947;DHT22;58605;48.700;8.760;2022-12-20T10:03:41;0.90;99.90
70947;DHT22;58605;48.700;8.760;2022-12-20T10:06:15;0.80;99.90
70947;DHT22;58605;48.700;8.760;2022-12-20T10:08:50;0.90;99.90
70947;DHT22;58605;48.700;8.760;2022-12-20T10:11:43;0.90;99.90
70947;DHT22;58605;48.700;8.760;2022-12-20T10:14:22;0.90;99.90
70947;DHT22;58605;48.700;8.760;2022-12-20T10:16:52;0.80;99.90
70947;DHT22;58605;48.700;8.760;2022-12-20T10:19:35;0.80;99.90
70947;DHT22;58605;48.700;8.760;2022-12-20T10:22:08;0.80;99.90
70947;DHT22;58605;48.700;8.760;2022-12-20T10:24:36;0.80;99.90
70947;DHT22;58605;48.700;8.760;2022-12-20T10:27:11;0.80;99.90
70947;DHT22;58605;48.700;8.760;2022-12-20T10:29:37;0.80;99.90
70947;DHT22;58605;48.700;8.760;2022-12-20T10:32:11;0.80;99.90
70947;DHT22;58605;48.700;8.760;2022-12-20T10:34:40;0.90;99.90
70947;DHT22;58605;48.700;8.760;2022-12-20T10:37:12;0.90;99.90
70947;DHT22;58605;48.700;8.760;2022-12-20T10:39:41;0.90;99.90
70947;DHT22;58605;48.700;8.760;2022-12-20T10:42:23;0.90;99.90
70947;DHT22;58605;48.700;8.760;2022-12-20T10:44:50;0.90;99.90
70947;DHT22;58605;48.700;8.760;2022-12-20T10:47:23;0.90;99.90
70947;DHT22;58605;48.700;8.760;2022-12-20T10:50:13;0.90;99.90
70947;DHT22;58605;48.700;8.760;2022-12-20T10:52:41;0.90;99.90
70947;DHT22;58605;48.700;8.760;2022-12-20T10:55:32;0.90;99.90
70947;DHT22;58605;48.700;8.760;2022-12-20T10:58:05;0.90;99.90
70947;DHT22;58605;48.700;8.760;2022-12-20T11:00:38;0.90;99.90
70947;DHT22;58605;48.700;8.760;2022-12-20T11:03:10;1.00;99.90
70947;DHT22;58605;48.700;8.760;2022-12-20T11:05:39;1.00;99.90
70947;DHT22;58605;48.700;8.760;2022-12-20T11:08:13;1.10;99.90
70947;DHT22;58605;48.700;8.760;2022-12-20T11:10:41;1.10;99.90
70947;DHT22;58605;48.700;8.760;2022-12-20T11:13:19;1.00;99.90
70947;DHT22;58605;48.700;8.760;2022-12-20T11:15:47;1.00;99.90
70947;DHT22;58605;48.700;8.760;2022-12-20T11:18:19;1.00;99.90
70947;DHT22;58605;48.700;8.760;2022-12-20T11:20:53;1.10;99.90
70947;DHT22;58605;48.700;8.760;2022-12-20T11:23:28;1.00;99.90
70947;DHT22;58605;48.700;8.760;2022-12-20T11:26:15;1.00;99.90
70947;DHT22;58605;48.700;8.760;2022-12-20T11:29:01;1.00;99.90
70947;DHT22;58605;48.700;8.760;2022-12-20T11:31:39;1.00;99.90
70947;DHT22;58605;48.700;8.760;2022-12-20T11:34:18;1.10;99.90
70947;DHT22;58605;48.700;8.760;2022-12-20T11:37:07;1.10;99.90
70947;DHT22;58605;48.700;8.760;2022-12-20T11:39:39;1.10;99.90
70947;DHT22;58605;48.700;8.760;2022-12-20T11:42:15;1.10;99.90
70947;DHT22;58605;48.700;8.760;2022-12-20T11:44:52;1.20;99.90
70947;DHT22;58605;48.700;8.760;2022-12-20T11:47:39;1.20;99.90
70947;DHT22;58605;48.700;8.760;2022-12-20T11:53:06;1.10;99.90
70947;DHT22;58605;48.700;8.760;2022-12-20T11:55:35;1.10;99.90
70947;DHT22;58605;48.700;8.760;2022-12-20T11:58:05;1.50;99.90
70947;DHT22;58605;48.700;8.760;2022-12-20T12:00:36;1.80;99.90
70947;DHT22;58605;48.700;8.760;2022-12-20T12:03:09;1.70;99.90
70947;DHT22;58605;48.700;8.760;2022-12-20T12:05:42;1.60;99.90
70947;DHT22;58605;48.700;8.760;2022-12-20T12:08:13;1.50;99.90
70947;DHT22;58605;48.700;8.760;2022-12-20T12:10:46;1.50;99.90
70947;DHT22;58605;48.700;8.760;2022-12-20T12:13:20;1.50;99.90
70947;DHT22;58605;48.700;8.760;2022-12-20T12:15:52;1.50;99.90
70947;DHT22;58605;48.700;8.760;2022-12-20T12:18:21;1.40;99.90
70947;DHT22;58605;48.700;8.760;2022-12-20T12:20:55;1.40;99.90
70947;DHT22;58605;48.700;8.760;2022-12-20T12:23:35;1.40;99.90
70947;DHT22;58605;48.700;8.760;2022-12-20T12:26:08;1.40;99.90
70947;DHT22;58605;48.700;8.760;2022-12-20T12:28:36;1.40;99.90
70947;DHT22;58605;48.700;8.760;2022-12-20T12:31:05;1.40;99.90
70947;DHT22;58605;48.700;8.760;2022-12-20T12:33:41;1.40;99.90
70947;DHT22;58605;48.700;8.760;2022-12-20T12:36:34;1.30;99.90
70947;DHT22;58605;48.700;8.760;2022-12-20T12:45:09;1.40;99.90
70947;DHT22;58605;48.700;8.760;2022-12-20T12:47:44;1.30;99.90
70947;DHT22;58605;48.700;8.760;2022-12-20T12:50:20;1.30;99.90
70947;DHT22;58605;48.700;8.760;2022-12-20T12:52:49;1.30;99.90
70947;DHT22;58605;48.700;8.760;2022-12-20T12:55:44;1.30;99.90
70947;DHT22;58605;48.700;8.760;2022-12-20T12:58:41;1.30;99.90
70947;DHT22;58605;48.700;8.760;2022-12-20T13:01:09;1.30;99.90
70947;DHT22;58605;48.700;8.760;2022-12-20T13:03:42;1.30;99.90
70947;DHT22;58605;48.700;8.760;2022-12-20T13:06:41;1.30;99.90
70947;DHT22;58605;48.700;8.760;2022-12-20T13:09:18;1.30;99.90
70947;DHT22;58605;48.700;8.760;2022-12-20T13:11:46;1.40;99.90
70947;DHT22;58605;48.700;8.760;2022-12-20T13:14:45;1.40;99.90
70947;DHT22;58605;48.700;8.760;2022-12-20T13:17:49;1.40;99.90
70947;DHT22;58605;48.700;8.760;2022-12-20T13:20:21;1.40;99.90
70947;DHT22;58605;48.700;8.760;2022-12-20T13:23:22;1.40;99.90
70947;DHT22;58605;48.700;8.760;2022-12-20T13:25:49;1.40;99.90
70947;DHT22;58605;48.700;8.760;2022-12-20T13:28:43;1.40;99.90
70947;DHT22;58605;48.700;8.760;2022-12-20T13:31:30;1.40;99.90
70947;DHT22;58605;48.700;8.760;2022-12-20T13:33:59;1.40;99.90
70947;DHT22;58605;48.700;8.760;2022-12-20T13:36:34;1.40;99.90
70947;DHT22;58605;48.700;8.760;2022-12-20T13:41:45;1.40;99.90
70947;DHT22;58605;48.700;8.760;2022-12-20T13:44:34;1.40;99.90
70947;DHT22;58605;48.700;8.760;2022-12-20T13:47:05;1.50;99.90
70947;DHT22;58605;48.700;8.760;2022-12-20T13:49:38;1.50;99.90
70947;DHT22;58605;48.700;8.760;2022-12-20T13:52:24;1.50;99.90
70947;DHT22;58605;48.700;8.760;2022-12-20T13:54:54;1.50;99.90
70947;DHT22;58605;48.700;8.760;2022-12-20T13:57:27;1.50;99.90
70947;DHT22;58605;48.700;8.760;2022-12-20T13:59:58;1.50;99.90
70947;DHT22;58605;48.700;8.760;2022-12-20T14:02:28;1.50;99.90
70947;DHT22;58605;48.700;8.760;2022-12-20T14:04:58;1.50;99.90
70947;DHT22;58605;48.700;8.760;2022-12-20T14:07:26;1.50;99.90
70947;DHT22;58605;48.700;8.760;2022-12-20T14:09:58;1.50;99.90
70947;DHT22;58605;48.700;8.760;2022-12-20T14:12:25;1.50;99.90
70947;DHT22;58605;48.700;8.760;2022-12-20T14:14:51;1.50;99.90
70947;DHT22;58605;48.700;8.760;2022-12-20T14:17:23;1.50;99.90
70947;DHT22;58605;48.700;8.760;2022-12-20T14:20:03;1.50;99.90
70947;DHT22;58605;48.700;8.760;2022-12-20T14:22:29;1.50;99.90
70947;DHT22;58605;48.700;8.760;2022-12-20T14:24:56;1.60;99.90
70947;DHT22;58605;48.700;8.760;2022-12-20T14:27:22;1.50;99.90
70947;DHT22;58605;48.700;8.760;2022-12-20T14:29:48;1.50;99.90
70947;DHT22;58605;48.700;8.760;2022-12-20T14:32:17;1.50;99.90
70947;DHT22;58605;48.700;8.760;2022-12-20T14:34:46;1.50;99.90
70947;DHT22;58605;48.700;8.760;2022-12-20T14:37:31;1.50;99.90
70947;DHT22;58605;48.700;8.760;2022-12-20T14:40:01;1.50;99.90
70947;DHT22;58605;48.700;8.760;2022-12-20T14:42:32;1.50;99.90
70947;DHT22;58605;48.700;8.760;2022-12-20T14:45:04;1.60;99.90
70947;DHT22;58605;48.700;8.760;2022-12-20T14:47:31;1.60;99.90
70947;DHT22;58605;48.700;8.760;2022-12-20T14:50:01;1.70;99.90
70947;DHT22;58605;48.700;8.760;2022-12-20T14:52:32;1.60;99.90
70947;DHT22;58605;48.700;8.760;2022-12-20T14:55:01;1.60;99.90
70947;DHT22;58605;48.700;8.760;2022-12-20T14:57:31;1.60;99.90
70947;DHT22;58605;48.700;8.760;2022-12-20T15:00:12;1.70;99.90
70947;DHT22;58605;48.700;8.760;2022-12-20T15:02:40;1.70;99.90
70947;DHT22;58605;48.700;8.760;2022-12-20T15:07:50;1.70;99.90
70947;DHT22;58605;48.700;8.760;2022-12-20T15:10:16;1.70;99.90
70947;DHT22;58605;48.700;8.760;2022-12-20T15:12:42;1.80;99.90
70947;DHT22;58605;48.700;8.760;2022-12-20T15:15:12;1.80;99.90
70947;DHT22;58605;48.700;8.760;2022-12-20T15:17:39;1.80;99.90
70947;DHT22;58605;48.700;8.760;2022-12-20T15:20:13;1.90;99.90
70947;DHT22;58605;48.700;8.760;2022-12-20T15:22:39;2.00;99.90
70947;DHT22;58605;48.700;8.760;2022-12-20T15:25:13;2.00;99.90
70947;DHT22;58605;48.700;8.760;2022-12-20T15:27:41;2.00;99.90
70947;DHT22;58605;48.700;8.760;2022-12-20T15:30:11;1.90;99.90
70947;DHT22;58605;48.700;8.760;2022-12-20T15:32:38;1.80;99.90
70947;DHT22;58605;48.700;8.760;2022-12-20T15:35:13;1.80;99.90
70947;DHT22;58605;48.700;8.760;2022-12-20T15:37:40;1.80;99.90
70947;DHT22;58605;48.700;8.760;2022-12-20T15:40:09;1.70;99.90
70947;DHT22;58605;48.700;8.760;2022-12-20T15:42:35;1.80;99.90
70947;DHT22;58605;48.700;8.760;2022-12-20T15:45:02;1.80;99.90
70947;DHT22;58605;48.700;8.760;2022-12-20T15:47:28;1.80;99.90
70947;DHT22;58605;48.700;8.760;2022-12-20T15:49:54;1.80;99.90
70947;DHT22;58605;48.700;8.760;2022-12-20T15:52:22;1.80;99.90
70947;DHT22;58605;48.700;8.760;2022-12-20T15:54:49;1.80;99.90
70947;DHT22;58605;48.700;8.760;2022-12-20T15:57:15;1.80;99.90
70947;DHT22;58605;48.700;8.760;2022-12-20T15:59:41;1.70;99.90
70947;DHT22;58605;48.700;8.760;2022-12-20T16:02:17;1.70;99.90
70947;DHT22;58605;48.700;8.760;2022-12-20T16:04:45;1.70;99.90
70947;DHT22;58605;48.700;8.760;2022-12-20T16:07:11;1.70;99.90
70947;DHT22;58605;48.700;8.760;2022-12-20T16:09:39;1.60;99.90
70947;DHT22;58605;48.700;8.760;2022-12-20T16:12:10;1.60;99.90
70947;DHT22;58605;48.700;8.760;2022-12-20T16:14:37;1.60;99.90
70947;DHT22;58605;48.700;8.760;2022-12-20T16:17:04;1.60;99.90
70947;DHT22;58605;48.700;8.760;2022-12-20T16:19:30;1.70;99.90
70947;DHT22;58605;48.700;8.760;2022-12-20T16:21:56;1.70;99.90